Time;durP1;ratioP1;P1;durP2;ratioP2;P2;SDS_P1;SDS_P2;PMS_P1;PMS_P2;Temp;Humidity;BMP_temperature;BMP_pressure;BME280_temperature;BME280_humidity;BME280_pressure;Samples;Min_cycle;Max_cycle;Signal;HPM_P1;HPM_P2
2022/08/23 00:00:46;;;;;;;3.83;2.93;;;20.70;56.50;;;;;;5051657;28;20460;-58
2022/08/23 00:03:13;;;;;;;3.83;3.23;;;20.70;56.60;;;;;;5052502;28;20479;-58
2022/08/23 00:05:42;;;;;;;6.60;2.80;;;20.70;56.70;;;;;;5052615;28;20539;-57
2022/08/23 00:08:09;;;;;;;4.30;2.50;;;20.70;56.80;;;;;;5051389;28;20440;-59
2022/08/23 00:10:36;;;;;;;6.40;2.90;;;20.70;57.40;;;;;;5038179;28;20460;-57
2022/08/23 00:13:03;;;;;;;3.67;2.80;;;20.70;56.90;;;;;;5052854;28;20966;-58
2022/08/23 00:15:30;;;;;;;3.67;2.50;;;20.60;57.00;;;;;;5052025;28;20562;-57
2022/08/23 00:17:59;;;;;;;3.67;2.60;;;20.60;57.10;;;;;;5052771;28;20541;-58
2022/08/23 00:20:26;;;;;;;3.80;2.67;;;20.60;57.20;;;;;;5050966;28;20496;-58
2022/08/23 00:22:56;;;;;;;5.97;2.97;;;20.60;57.30;;;;;;5050320;28;21022;-57
2022/08/23 00:25:24;;;;;;;4.20;2.90;;;20.60;57.50;;;;;;5053116;28;20861;-58
2022/08/23 00:27:52;;;;;;;3.80;2.40;;;20.60;57.60;;;;;;5056146;28;20491;-58
2022/08/23 00:30:19;;;;;;;3.57;2.83;;;20.50;57.70;;;;;;5056300;28;20463;-58
2022/08/23 00:32:46;;;;;;;2.57;2.37;;;20.50;57.70;;;;;;5056062;28;20909;-57
2022/08/23 00:35:15;;;;;;;2.53;2.30;;;20.50;57.90;;;;;;5056468;28;20504;-58
2022/08/23 00:37:42;;;;;;;3.70;2.40;;;20.50;58.00;;;;;;5056127;28;20894;-58
2022/08/23 00:40:14;;;;;;;7.00;2.63;;;20.50;58.00;;;;;;5056069;28;20568;-58
2022/08/23 00:48:21;;;;;;;3.47;2.47;;;20.40;58.40;;;;;;5055910;28;20472;-59
2022/08/23 00:50:54;;;;;;;6.60;2.90;;;20.40;58.60;;;;;;5055333;28;20531;-59
2022/08/23 00:53:25;;;;;;;5.10;2.37;;;20.40;58.70;;;;;;5054607;28;20483;-58
2022/08/23 00:55:57;;;;;;;5.57;2.90;;;20.40;58.80;;;;;;5056099;28;20559;-59
2022/08/23 00:58:26;;;;;;;4.80;2.80;;;20.30;58.80;;;;;;5056282;28;20460;-58
2022/08/23 01:00:55;;;;;;;3.30;2.50;;;20.30;58.90;;;;;;5055622;28;20490;-58
2022/08/23 01:03:25;;;;;;;4.03;2.50;;;20.30;58.90;;;;;;5051885;28;20563;-59
2022/08/23 01:06:01;;;;;;;3.50;3.03;;;20.30;59.00;;;;;;5055625;28;20960;-58
2022/08/23 01:08:31;;;;;;;2.60;2.40;;;20.30;59.10;;;;;;5055469;28;20486;-58
2022/08/23 01:11:03;;;;;;;3.70;2.80;;;20.30;59.20;;;;;;5055509;28;20551;-58
2022/08/23 01:13:39;;;;;;;3.83;2.73;;;20.30;59.30;;;;;;5056526;28;20464;-58
2022/08/23 01:16:10;;;;;;;3.40;2.73;;;20.30;59.40;;;;;;5056126;28;20471;-59
2022/08/23 01:18:39;;;;;;;4.90;2.60;;;20.30;59.40;;;;;;5055378;28;20559;-58
2022/08/23 01:21:13;;;;;;;3.83;2.60;;;20.20;59.40;;;;;;5055390;28;20552;-57
2022/08/23 01:23:45;;;;;;;2.60;2.40;;;20.20;59.60;;;;;;5055304;28;20991;-58
2022/08/23 01:26:14;;;;;;;6.87;2.93;;;20.20;59.70;;;;;;5055095;28;20948;-58
2022/08/23 01:28:42;;;;;;;5.33;2.67;;;20.20;59.80;;;;;;5054803;28;20468;-58
2022/08/23 01:31:10;;;;;;;3.53;2.90;;;20.10;59.90;;;;;;5054211;28;20459;-60
2022/08/23 01:33:39;;;;;;;2.90;2.30;;;20.10;60.10;;;;;;5035694;28;20481;-59
2022/08/23 01:36:09;;;;;;;3.00;2.27;;;20.10;60.90;;;;;;5045063;28;20490;-58
2022/08/23 01:38:36;;;;;;;3.40;2.60;;;20.10;60.40;;;;;;5055168;28;20543;-58
2022/08/23 01:41:06;;;;;;;4.10;2.40;;;20.00;60.40;;;;;;5054916;28;20555;-58
2022/08/23 01:43:34;;;;;;;3.53;2.67;;;20.00;60.60;;;;;;5055831;28;20478;-57
2022/08/23 01:46:09;;;;;;;3.03;2.73;;;20.00;60.70;;;;;;5054795;28;20460;-58
2022/08/23 01:48:36;;;;;;;4.10;2.80;;;20.00;60.80;;;;;;5055063;28;20451;-58
2022/08/23 01:51:04;;;;;;;3.40;2.77;;;20.00;61.00;;;;;;5054404;28;20554;-59
2022/08/23 01:53:31;;;;;;;4.00;2.70;;;20.00;61.20;;;;;;5054085;28;20490;-58
2022/08/23 01:56:00;;;;;;;3.23;2.57;;;19.90;61.30;;;;;;5054339;28;20491;-58
2022/08/23 01:58:31;;;;;;;3.13;2.53;;;19.90;61.50;;;;;;5054310;28;20464;-59
2022/08/23 02:00:59;;;;;;;10.70;2.83;;;19.80;61.50;;;;;;5039448;28;20552;-57
2022/08/23 02:03:27;;;;;;;4.70;2.67;;;19.80;61.80;;;;;;5055526;28;20464;-57
2022/08/23 02:05:54;;;;;;;3.30;3.00;;;19.80;62.00;;;;;;5054528;28;20452;-57
2022/08/23 02:11:08;;;;;;;4.67;3.33;;;19.80;62.40;;;;;;5054567;28;20443;-57
2022/08/23 02:13:37;;;;;;;4.13;2.50;;;19.80;62.60;;;;;;5054765;28;20550;-57
2022/08/23 02:16:05;;;;;;;6.60;3.40;;;19.70;62.70;;;;;;5053597;28;20504;-57
2022/08/23 02:18:32;;;;;;;3.97;2.80;;;19.70;62.90;;;;;;5053925;28;20559;-57
2022/08/23 02:21:00;;;;;;;3.40;3.10;;;19.60;63.00;;;;;;5054271;28;20539;-57
2022/08/23 02:23:28;;;;;;;3.40;3.00;;;19.60;63.30;;;;;;5054047;28;20483;-57
2022/08/23 02:25:55;;;;;;;3.97;3.00;;;19.60;63.50;;;;;;5053756;28;20503;-57
2022/08/23 02:28:24;;;;;;;4.80;3.30;;;19.60;63.70;;;;;;5053240;28;20543;-57
2022/08/23 02:30:53;;;;;;;4.20;2.60;;;19.50;63.90;;;;;;5053974;28;20467;-57
2022/08/23 02:33:21;;;;;;;3.90;2.47;;;19.50;64.20;;;;;;5054435;28;20830;-57
2022/08/23 02:35:48;;;;;;;5.53;2.83;;;19.40;64.40;;;;;;5054028;28;20844;-58
2022/08/23 02:38:16;;;;;;;5.10;3.23;;;19.40;64.80;;;;;;5053700;28;20464;-57
2022/08/23 02:40:44;;;;;;;3.10;2.80;;;19.30;64.90;;;;;;5053603;28;20563;-57
2022/08/23 02:43:12;;;;;;;9.70;3.27;;;19.30;65.30;;;;;;5052749;28;20529;-59
2022/08/23 02:45:39;;;;;;;2.83;2.63;;;19.20;65.50;;;;;;5053617;28;20547;-58
2022/08/23 02:48:09;;;;;;;4.07;3.07;;;19.20;65.80;;;;;;5051540;28;20543;-59
2022/08/23 02:50:37;;;;;;;3.60;2.67;;;19.20;66.10;;;;;;5052297;28;20543;-57
2022/08/23 02:53:04;;;;;;;4.10;3.20;;;19.10;66.20;;;;;;5054053;28;20567;-57
2022/08/23 02:55:31;;;;;;;3.50;2.47;;;19.10;66.50;;;;;;5052768;28;21210;-58
2022/08/23 02:57:59;;;;;;;3.30;3.00;;;19.10;66.80;;;;;;5053318;28;20503;-57
2022/08/23 03:00:26;;;;;;;4.13;2.87;;;19.00;67.00;;;;;;5052758;28;20821;-57
2022/08/23 03:02:53;;;;;;;2.80;2.40;;;19.00;67.10;;;;;;5053102;28;20946;-57
2022/08/23 03:05:22;;;;;;;3.30;3.00;;;19.00;67.50;;;;;;5053482;28;20543;-58
2022/08/23 03:07:49;;;;;;;8.60;3.23;;;18.90;67.70;;;;;;5053788;28;20524;-57
2022/08/23 03:10:17;;;;;;;8.80;3.20;;;18.90;68.10;;;;;;5052674;28;20556;-59
2022/08/23 03:12:44;;;;;;;4.30;2.73;;;18.90;68.40;;;;;;5051035;28;20477;-57
2022/08/23 03:15:11;;;;;;;3.27;2.97;;;18.80;68.60;;;;;;5052025;28;20482;-58
2022/08/23 03:17:39;;;;;;;5.10;3.50;;;18.80;69.00;;;;;;5053947;28;20451;-57
2022/08/23 03:20:07;;;;;;;5.27;3.17;;;18.80;69.30;;;;;;5053230;28;20474;-57
2022/08/23 03:22:36;;;;;;;3.37;3.07;;;18.70;69.40;;;;;;5053635;28;20468;-57
2022/08/23 03:25:04;;;;;;;4.40;3.30;;;18.70;69.70;;;;;;5053396;28;20510;-57
2022/08/23 03:27:31;;;;;;;3.17;2.70;;;18.70;70.10;;;;;;5052783;28;20583;-57
2022/08/23 03:29:59;;;;;;;5.07;3.03;;;18.70;71.00;;;;;;5053017;28;20987;-58
2022/08/23 03:32:26;;;;;;;4.03;2.93;;;18.60;70.60;;;;;;5053639;28;20926;-59
2022/08/23 03:34:53;;;;;;;4.90;3.00;;;18.60;70.90;;;;;;5052703;28;20543;-59
2022/08/23 03:37:21;;;;;;;5.87;3.13;;;18.60;71.20;;;;;;5053251;28;20543;-58
2022/08/23 03:39:51;;;;;;;4.83;3.27;;;18.50;71.40;;;;;;5053344;28;20452;-58
2022/08/23 03:42:18;;;;;;;4.47;3.13;;;18.50;71.70;;;;;;5053163;28;20486;-58
2022/08/23 03:44:45;;;;;;;3.80;2.93;;;18.50;71.90;;;;;;5052102;28;20558;-58
2022/08/23 03:47:12;;;;;;;6.23;4.03;;;18.50;72.10;;;;;;5049211;28;20907;-59
2022/08/23 03:49:40;;;;;;;4.87;3.17;;;18.50;72.40;;;;;;5051984;28;20948;-59
2022/08/23 03:52:07;;;;;;;4.63;3.53;;;18.50;72.50;;;;;;5052334;28;20476;-58
2022/08/23 03:54:35;;;;;;;4.23;2.87;;;18.50;72.50;;;;;;5052202;28;20475;-57
2022/08/23 03:57:08;;;;;;;3.77;3.10;;;18.50;72.70;;;;;;5051723;28;20629;-59
2022/08/23 03:59:37;;;;;;;3.73;2.70;;;18.50;73.00;;;;;;5051126;28;20459;-58
2022/08/23 04:02:05;;;;;;;4.97;3.30;;;18.40;73.00;;;;;;5053120;28;20533;-58
2022/08/23 04:04:32;;;;;;;3.80;3.13;;;18.40;73.10;;;;;;5054092;28;20540;-61
2022/08/23 04:10:13;;;;;;;5.70;3.67;;;18.40;72.90;;;;;;5132787;27;20633;-59
2022/08/23 04:12:41;;;;;;;3.33;3.03;;;18.40;73.20;;;;;;5131761;28;20918;-59
2022/08/23 04:15:10;;;;;;;5.70;3.87;;;18.40;73.40;;;;;;5130609;28;20460;-58
2022/08/23 04:17:37;;;;;;;5.03;3.60;;;18.40;73.40;;;;;;5129125;28;20491;-59
2022/08/23 04:20:06;;;;;;;3.73;3.03;;;18.40;73.50;;;;;;5125538;28;21046;-59
2022/08/23 04:22:33;;;;;;;4.70;3.20;;;18.40;73.70;;;;;;5110732;28;20561;-59
2022/08/23 04:25:02;;;;;;;3.30;2.97;;;18.40;73.80;;;;;;5114121;28;20467;-62
2022/08/23 04:27:31;;;;;;;3.60;3.00;;;18.40;73.80;;;;;;5104464;28;20486;-59
2022/08/23 04:29:59;;;;;;;5.03;4.10;;;18.40;73.90;;;;;;5106375;28;20889;-60
2022/08/23 04:32:26;;;;;;;3.63;3.17;;;18.50;73.90;;;;;;5115478;28;20999;-59
2022/08/23 04:34:53;;;;;;;7.37;3.30;;;18.60;73.70;;;;;;5134791;22;20581;-60
2022/08/23 04:37:21;;;;;;;5.87;3.30;;;18.70;73.50;;;;;;5088988;28;20549;-59
2022/08/23 04:42:34;;;;;;;4.70;2.80;;;19.00;72.70;;;;;;5089580;28;20552;-59
2022/08/23 04:45:01;;;;;;;6.23;3.97;;;19.20;72.10;;;;;;5078780;28;20809;-59
2022/08/23 04:47:29;;;;;;;4.90;4.37;;;19.30;71.70;;;;;;5070038;28;20483;-58
2022/08/23 04:49:56;;;;;;;6.43;3.87;;;19.50;71.20;;;;;;5069117;28;20491;-59
2022/08/23 04:52:23;;;;;;;4.70;3.20;;;19.60;70.60;;;;;;5070126;28;20546;-58
2022/08/23 04:54:51;;;;;;;3.60;3.03;;;19.80;70.10;;;;;;5069382;28;21003;-60
2022/08/23 04:57:18;;;;;;;3.80;3.30;;;19.80;69.40;;;;;;5064957;28;20532;-60
2022/08/23 04:59:47;;;;;;;6.70;3.63;;;19.90;69.00;;;;;;5066713;28;20495;-59
2022/08/23 05:02:14;;;;;;;3.90;2.97;;;20.00;68.50;;;;;;5069269;28;20562;-60
2022/08/23 05:04:41;;;;;;;5.00;3.13;;;20.10;68.10;;;;;;5069337;28;20484;-60
2022/08/23 05:07:08;;;;;;;5.13;3.50;;;20.20;67.60;;;;;;5066195;28;20472;-60
2022/08/23 05:09:36;;;;;;;4.30;3.10;;;20.30;67.20;;;;;;5068891;28;20818;-60
2022/08/23 05:12:04;;;;;;;4.80;3.50;;;20.40;67.00;;;;;;5067266;28;20548;-62
2022/08/23 05:14:31;;;;;;;4.57;3.37;;;20.50;66.60;;;;;;5063383;28;20485;-61
2022/08/23 05:17:00;;;;;;;6.07;3.17;;;20.50;66.10;;;;;;5058665;28;20467;-59
2022/08/23 05:19:28;;;;;;;4.80;3.50;;;20.60;65.90;;;;;;5066540;28;21014;-59
2022/08/23 05:21:55;;;;;;;7.30;3.10;;;20.60;65.50;;;;;;5057792;28;20451;-59
2022/08/23 05:24:22;;;;;;;7.00;2.80;;;20.70;65.30;;;;;;5057837;28;20469;-59
2022/08/23 05:26:50;;;;;;;4.70;4.30;;;20.80;65.00;;;;;;5057152;28;20508;-59
2022/08/23 05:29:20;;;;;;;7.07;2.87;;;20.90;64.60;;;;;;5057144;28;20566;-59
2022/08/23 05:31:47;;;;;;;5.43;3.00;;;20.90;64.20;;;;;;5056241;28;20455;-58
2022/08/23 05:34:16;;;;;;;3.23;2.93;;;20.80;64.00;;;;;;5057244;28;20472;-59
2022/08/23 05:36:44;;;;;;;4.93;4.10;;;20.70;64.00;;;;;;5057112;28;20481;-58
2022/08/23 05:39:11;;;;;;;5.50;3.60;;;20.50;64.10;;;;;;5056228;28;20553;-59
2022/08/23 05:41:39;;;;;;;3.80;3.33;;;20.40;64.30;;;;;;5056303;28;20446;-59
2022/08/23 05:44:06;;;;;;;9.17;3.10;;;20.40;64.60;;;;;;5056032;28;20465;-59
2022/08/23 05:46:34;;;;;;;5.40;3.40;;;20.30;64.70;;;;;;5056360;28;20468;-59
2022/08/23 05:49:01;;;;;;;6.53;3.17;;;20.30;64.80;;;;;;5055597;28;20481;-60
2022/08/23 05:51:33;;;;;;;5.60;3.57;;;20.30;65.00;;;;;;5055298;28;20450;-59
2022/08/23 05:54:04;;;;;;;4.53;3.10;;;20.20;64.90;;;;;;5055317;28;20479;-59
2022/08/23 05:56:33;;;;;;;5.00;3.87;;;20.20;64.80;;;;;;5055576;28;20444;-59
2022/08/23 05:59:04;;;;;;;6.83;3.90;;;20.30;65.00;;;;;;5054243;28;20477;-59
2022/08/23 06:01:32;;;;;;;6.63;3.13;;;20.30;64.80;;;;;;5053882;28;20983;-60
2022/08/23 06:03:59;;;;;;;5.10;3.67;;;20.40;64.80;;;;;;5049739;28;20615;-60
2022/08/23 06:06:28;;;;;;;5.00;3.60;;;20.40;64.70;;;;;;5046865;28;20441;-60
2022/08/23 06:08:56;;;;;;;3.50;3.20;;;20.50;64.70;;;;;;5054947;28;20483;-60
2022/08/23 06:11:26;;;;;;;6.20;3.40;;;20.50;64.50;;;;;;5055552;28;20459;-60
2022/08/23 06:13:55;;;;;;;3.87;3.43;;;20.50;64.40;;;;;;5056178;28;20505;-58
2022/08/23 06:16:26;;;;;;;7.27;3.43;;;20.50;64.20;;;;;;5055108;28;20941;-60
2022/08/23 06:18:56;;;;;;;4.70;3.50;;;20.70;64.20;;;;;;5055308;28;20931;-60
2022/08/23 06:21:24;;;;;;;6.43;3.10;;;20.80;64.00;;;;;;5056502;28;20513;-60
2022/08/23 06:23:52;;;;;;;7.30;3.40;;;20.90;63.70;;;;;;5055986;28;20578;-60
2022/08/23 06:26:23;;;;;;;6.97;3.57;;;21.00;63.30;;;;;;5054815;28;20463;-60
2022/08/23 06:28:53;;;;;;;5.20;3.90;;;21.10;63.00;;;;;;5054791;28;21048;-59
2022/08/23 06:34:03;;;;;;;5.23;3.60;;;21.30;62.50;;;;;;5053815;28;20450;-60
2022/08/23 06:36:30;;;;;;;6.37;3.67;;;21.50;62.10;;;;;;5054583;28;20511;-61
2022/08/23 06:38:57;;;;;;;4.10;2.80;;;21.70;61.70;;;;;;5054113;28;20735;-59
2022/08/23 06:41:27;;;;;;;5.17;3.63;;;21.90;61.10;;;;;;5054273;28;20450;-60
2022/08/23 06:43:54;;;;;;;6.40;3.57;;;22.00;60.70;;;;;;5054436;28;20448;-61
2022/08/23 06:46:23;;;;;;;4.67;3.80;;;22.10;60.40;;;;;;5054662;28;20449;-60
2022/08/23 06:48:51;;;;;;;6.43;3.67;;;22.20;60.30;;;;;;5053752;28;20565;-58
2022/08/23 06:51:23;;;;;;;4.47;3.77;;;22.30;60.00;;;;;;5054124;28;20459;-60
2022/08/23 06:53:53;;;;;;;7.90;4.00;;;22.40;59.60;;;;;;5053250;28;20522;-61
2022/08/23 06:56:21;;;;;;;5.50;3.30;;;22.50;59.40;;;;;;5053245;28;20467;-58
2022/08/23 06:58:50;;;;;;;5.30;3.30;;;22.70;59.10;;;;;;5051487;28;20491;-60
2022/08/23 07:01:23;;;;;;;5.33;3.13;;;22.70;58.80;;;;;;5047369;28;20559;-60
2022/08/23 07:03:55;;;;;;;6.40;4.00;;;22.80;58.60;;;;;;5047739;28;20465;-59
2022/08/23 07:06:22;;;;;;;4.00;3.00;;;23.00;58.30;;;;;;5053080;28;20440;-60
2022/08/23 07:08:50;;;;;;;4.90;3.80;;;23.10;58.10;;;;;;5053278;28;20497;-60
2022/08/23 07:11:17;;;;;;;4.10;3.37;;;23.20;57.90;;;;;;5053599;28;20479;-60
2022/08/23 07:13:46;;;;;;;6.90;3.57;;;23.10;57.60;;;;;;5053473;28;20486;-59
2022/08/23 07:16:16;;;;;;;5.17;3.30;;;23.10;57.60;;;;;;5053562;28;20498;-61
2022/08/23 07:18:44;;;;;;;5.60;3.00;;;23.00;57.50;;;;;;5053339;28;20432;-60
2022/08/23 07:21:12;;;;;;;4.50;3.03;;;23.10;57.30;;;;;;5053669;28;20513;-59
2022/08/23 07:23:42;;;;;;;5.17;2.70;;;23.20;57.10;;;;;;5053173;28;20550;-58
2022/08/23 07:26:11;;;;;;;4.03;2.90;;;23.30;56.90;;;;;;5052988;28;20907;-60
2022/08/23 07:28:41;;;;;;;3.80;2.90;;;23.40;56.40;;;;;;5053279;28;20543;-60
2022/08/23 07:31:10;;;;;;;3.97;2.83;;;23.60;56.10;;;;;;5053353;28;20478;-59
2022/08/23 07:33:39;;;;;;;5.07;3.33;;;23.70;55.50;;;;;;5052789;28;20452;-59
2022/08/23 07:36:07;;;;;;;3.43;3.13;;;23.80;55.10;;;;;;5053503;28;20440;-60
2022/08/23 07:38:35;;;;;;;9.27;2.80;;;23.90;54.80;;;;;;5053067;28;20452;-59
2022/08/23 07:41:03;;;;;;;4.33;2.83;;;24.00;54.40;;;;;;5053088;28;20885;-61
2022/08/23 07:43:32;;;;;;;3.90;3.20;;;24.10;54.10;;;;;;5052086;28;20455;-60
2022/08/23 07:45:59;;;;;;;3.10;2.73;;;24.20;53.70;;;;;;5053014;28;20560;-61
2022/08/23 07:48:27;;;;;;;7.87;3.10;;;24.30;53.50;;;;;;5053142;28;20454;-60
2022/08/23 07:50:58;;;;;;;4.67;2.90;;;24.40;53.20;;;;;;5054155;28;20903;-60
2022/08/23 07:53:26;;;;;;;3.47;3.17;;;24.50;52.90;;;;;;5053415;28;20926;-59
2022/08/23 07:55:54;;;;;;;3.60;2.63;;;24.70;52.60;;;;;;5052965;28;20464;-61
2022/08/23 07:58:23;;;;;;;3.50;2.80;;;24.70;52.10;;;;;;5053113;28;20451;-60
2022/08/23 08:00:50;;;;;;;4.97;2.77;;;24.80;51.80;;;;;;5053196;28;20443;-61
2022/08/23 08:03:18;;;;;;;2.70;2.50;;;24.80;51.70;;;;;;5052698;28;20960;-61
2022/08/23 08:05:46;;;;;;;3.30;2.97;;;24.80;51.70;;;;;;5052945;28;20554;-60
2022/08/23 08:08:15;;;;;;;3.43;3.17;;;24.90;51.60;;;;;;5053316;28;20458;-62
2022/08/23 08:10:43;;;;;;;3.93;2.80;;;25.00;51.50;;;;;;5053271;28;20509;-61
2022/08/23 08:13:11;;;;;;;5.53;2.67;;;25.00;51.10;;;;;;5053079;28;20450;-60
2022/08/23 08:15:42;;;;;;;4.30;2.77;;;25.10;50.80;;;;;;5053332;28;20494;-60
2022/08/23 08:18:09;;;;;;;5.27;2.70;;;25.10;50.40;;;;;;5053922;28;20522;-61
2022/08/23 08:20:36;;;;;;;6.60;3.10;;;25.00;50.20;;;;;;5053384;28;20915;-61
2022/08/23 08:23:05;;;;;;;5.00;3.30;;;25.10;50.20;;;;;;5053269;28;20475;-61
2022/08/23 08:25:34;;;;;;;3.10;2.90;;;25.10;49.90;;;;;;5052657;28;20491;-61
2022/08/23 08:28:01;;;;;;;4.20;2.57;;;25.10;49.60;;;;;;5052546;28;20450;-61
2022/08/23 08:30:29;;;;;;;3.80;2.80;;;25.10;49.40;;;;;;5052386;28;20559;-61
2022/08/23 08:32:56;;;;;;;3.27;2.97;;;25.20;49.20;;;;;;5052885;28;20545;-60
2022/08/23 08:35:23;;;;;;;6.20;2.60;;;25.30;48.90;;;;;;5052514;28;20563;-62
2022/08/23 08:37:51;;;;;;;3.23;2.60;;;25.40;48.70;;;;;;5052596;28;20451;-61
2022/08/23 08:40:26;;;;;;;4.13;3.20;;;25.50;48.40;;;;;;5052357;28;21027;-60
2022/08/23 08:43:07;;;;;;;5.27;2.53;;;25.60;48.10;;;;;;5052449;28;20426;-60
2022/08/23 08:45:45;;;;;;;2.60;2.30;;;25.70;47.70;;;;;;5052762;28;21057;-61
2022/08/23 08:48:21;;;;;;;3.20;2.73;;;25.70;47.40;;;;;;5052887;28;20793;-61
2022/08/23 08:50:53;;;;;;;5.40;2.73;;;25.70;46.90;;;;;;5052416;28;20506;-61
2022/08/23 08:53:25;;;;;;;3.07;1.73;;;25.70;46.50;;;;;;5053149;28;20474;-60
2022/08/23 08:55:57;;;;;;;2.50;2.30;;;25.70;46.10;;;;;;5054490;28;21048;-59
2022/08/23 08:58:33;;;;;;;3.67;2.50;;;25.70;45.60;;;;;;5056734;28;20459;-61
2022/08/23 09:01:01;;;;;;;6.03;2.07;;;25.80;45.10;;;;;;5057197;28;20514;-61
2022/08/23 09:03:32;;;;;;;2.00;1.80;;;25.90;44.70;;;;;;5056387;28;20445;-61
2022/08/23 09:06:06;;;;;;;2.60;1.70;;;26.00;44.20;;;;;;5055870;28;20470;-60
2022/08/23 09:08:55;;;;;;;2.77;1.70;;;26.10;43.80;;;;;;5056164;28;20751;-60
2022/08/23 09:11:33;;;;;;;5.57;1.67;;;26.30;43.50;;;;;;5056142;28;20569;-61
2022/08/23 09:14:16;;;;;;;2.43;1.50;;;26.40;43.20;;;;;;5055498;28;20500;-61
2022/08/23 09:16:52;;;;;;;2.53;1.57;;;26.50;42.70;;;;;;5055842;28;20434;-61
2022/08/23 09:19:21;;;;;;;2.40;1.47;;;26.50;42.40;;;;;;5055945;28;20497;-61
2022/08/23 09:21:55;;;;;;;5.53;1.50;;;26.50;42.30;;;;;;5055849;28;20449;-61
2022/08/23 09:24:22;;;;;;;1.77;1.20;;;26.50;42.20;;;;;;5056096;28;20469;-60
2022/08/23 09:26:52;;;;;;;2.00;1.40;;;26.70;42.20;;;;;;5055810;28;20509;-61
2022/08/23 09:29:24;;;;;;;1.80;1.40;;;26.80;41.90;;;;;;5055322;28;20845;-60
2022/08/23 09:31:54;;;;;;;2.60;1.47;;;26.90;41.40;;;;;;5055926;28;20430;-63
2022/08/23 09:34:40;;;;;;;6.93;1.27;;;26.90;41.30;;;;;;5056365;28;20517;-61
2022/08/23 09:37:15;;;;;;;2.87;1.20;;;27.10;41.30;;;;;;5056342;28;20476;-60
2022/08/23 09:39:43;;;;;;;3.30;1.50;;;27.10;41.00;;;;;;5055730;28;20460;-60
2022/08/23 09:42:28;;;;;;;3.73;1.17;;;27.20;40.60;;;;;;5055697;28;20485;-61
2022/08/23 09:44:57;;;;;;;3.93;1.33;;;27.30;40.40;;;;;;5055146;28;20465;-61
2022/08/23 09:47:33;;;;;;;2.60;1.30;;;27.40;40.10;;;;;;5054866;28;20478;-61
2022/08/23 09:50:09;;;;;;;2.73;1.10;;;27.50;39.90;;;;;;5055301;28;21065;-60
2022/08/23 09:52:39;;;;;;;1.83;0.97;;;27.60;39.50;;;;;;5060084;28;20466;-59
2022/08/23 09:55:10;;;;;;;1.20;1.03;;;27.60;39.20;;;;;;5055281;28;20471;-59
2022/08/23 09:57:38;;;;;;;2.23;1.53;;;27.50;39.20;;;;;;5055669;28;20439;-59
2022/08/23 10:00:24;;;;;;;3.87;1.20;;;27.60;39.30;;;;;;5055065;28;20458;-58
2022/08/23 10:02:56;;;;;;;2.17;1.30;;;27.70;39.20;;;;;;5055229;28;20516;-58
2022/08/23 10:05:31;;;;;;;3.73;1.20;;;27.80;39.20;;;;;;5055470;28;20469;-59
2022/08/23 10:08:00;;;;;;;1.93;1.00;;;27.90;39.20;;;;;;5055242;28;20872;-59
2022/08/23 10:10:34;;;;;;;1.80;1.37;;;28.00;39.10;;;;;;5054834;28;20914;-59
2022/08/23 10:13:03;;;;;;;1.50;1.30;;;28.00;38.70;;;;;;5055188;28;20505;-58
2022/08/23 10:15:48;;;;;;;2.47;1.57;;;28.00;38.70;;;;;;5054802;28;21045;-59
2022/08/23 10:18:25;;;;;;;6.00;1.90;;;28.00;38.60;;;;;;5054661;28;20442;-59
2022/08/23 10:21:00;;;;;;;3.63;1.40;;;28.10;38.60;;;;;;5054284;28;20526;-59
2022/08/23 10:23:37;;;;;;;2.57;1.57;;;28.20;38.50;;;;;;5054990;28;20519;-60
2022/08/23 10:26:10;;;;;;;2.37;1.60;;;28.30;38.20;;;;;;5054857;28;20913;-57
2022/08/23 10:31:44;;;;;;;2.43;1.70;;;28.40;38.00;;;;;;5055329;28;20467;-58
2022/08/23 10:34:24;;;;;;;1.60;1.30;;;28.40;37.80;;;;;;5058308;28;20506;-59
2022/08/23 10:37:04;;;;;;;3.17;1.10;;;28.50;37.70;;;;;;5090035;22;20537;-60
2022/08/23 10:39:32;;;;;;;2.70;1.50;;;28.50;37.60;;;;;;5054043;28;20446;-59
2022/08/23 10:42:05;;;;;;;3.10;1.90;;;28.60;37.40;;;;;;5054203;28;20468;-60
2022/08/23 10:44:39;;;;;;;3.87;1.90;;;28.60;37.40;;;;;;5054034;28;20487;-59
2022/08/23 10:47:20;;;;;;;2.93;1.60;;;28.60;37.50;;;;;;5053212;28;21033;-59
2022/08/23 10:49:50;;;;;;;2.97;1.60;;;28.70;37.80;;;;;;5053121;28;20434;-59
2022/08/23 10:52:21;;;;;;;1.90;1.40;;;28.70;37.80;;;;;;5053794;28;20442;-59
2022/08/23 10:54:59;;;;;;;2.10;1.40;;;28.80;37.50;;;;;;5052793;28;20449;-62
2022/08/23 10:57:34;;;;;;;3.97;1.77;;;28.90;37.10;;;;;;5049382;28;20461;-59
2022/08/23 11:00:05;;;;;;;2.73;1.33;;;28.80;36.70;;;;;;5052060;28;20453;-59
2022/08/23 11:02:41;;;;;;;2.00;1.20;;;28.80;36.60;;;;;;5053775;28;20479;-59
2022/08/23 11:05:22;;;;;;;3.40;1.60;;;28.70;36.40;;;;;;5053626;28;20468;-61
2022/08/23 11:08:02;;;;;;;2.00;1.43;;;28.90;36.30;;;;;;5054101;28;20450;-60
2022/08/23 11:10:46;;;;;;;2.13;1.37;;;28.90;35.90;;;;;;5053999;28;20550;-59
2022/08/23 11:13:25;;;;;;;2.93;2.33;;;29.00;35.80;;;;;;5053192;28;20449;-59
2022/08/23 11:15:59;;;;;;;2.40;1.50;;;28.90;35.80;;;;;;5053786;28;20882;-60
2022/08/23 11:18:41;;;;;;;3.50;1.90;;;28.90;36.00;;;;;;5052798;28;20430;-57
2022/08/23 11:21:12;;;;;;;5.03;1.90;;;29.00;36.10;;;;;;5052443;28;20537;-59
2022/08/23 11:23:48;;;;;;;1.57;1.33;;;29.10;36.30;;;;;;5052778;28;20458;-59
2022/08/23 11:27:03;;;;;;;3.17;1.60;;;29.20;36.30;;;;;;5053548;28;20489;-60
2022/08/23 11:29:34;;;;;;;2.70;1.30;;;29.30;35.90;;;;;;5054400;28;20794;-59
2022/08/23 11:32:37;;;;;;;4.30;1.27;;;29.40;35.40;;;;;;5054548;28;20866;-59
2022/08/23 11:35:37;;;;;;;4.23;1.90;;;29.40;35.20;;;;;;5048423;28;20471;-60
2022/08/23 11:38:06;;;;;;;2.70;1.83;;;29.60;35.30;;;;;;5054149;28;20523;-61
2022/08/23 11:40:55;;;;;;;2.43;1.77;;;29.60;35.10;;;;;;5059259;28;20505;-60
2022/08/23 11:43:28;;;;;;;2.63;1.67;;;29.70;35.30;;;;;;5057489;28;20792;-62
2022/08/23 11:46:25;;;;;;;3.77;1.57;;;29.70;35.60;;;;;;5056296;28;20509;-58
2022/08/23 11:49:02;;;;;;;2.43;1.70;;;29.80;35.70;;;;;;5053974;28;20508;-60
2022/08/23 11:51:41;;;;;;;2.20;1.70;;;30.10;35.40;;;;;;5051569;28;20556;-60
2022/08/23 11:54:31;;;;;;;5.67;1.90;;;30.60;34.50;;;;;;5053205;28;20459;-61
2022/08/23 11:57:07;;;;;;;3.37;1.70;;;31.00;33.90;;;;;;5049839;28;20532;-60
2022/08/23 11:59:53;;;;;;;3.43;1.67;;;31.50;33.40;;;;;;5052605;28;20905;-60
2022/08/23 12:02:46;;;;;;;3.53;1.70;;;31.80;32.80;;;;;;5051032;28;21018;-60
2022/08/23 12:05:43;;;;;;;4.10;1.70;;;32.30;32.20;;;;;;5052769;28;20466;-60
2022/08/23 12:08:32;;;;;;;3.30;1.60;;;32.60;31.60;;;;;;5050747;28;20485;-61
2022/08/23 12:11:10;;;;;;;6.87;2.10;;;32.60;31.00;;;;;;5051991;28;20501;-59
2022/08/23 12:13:53;;;;;;;1.53;1.43;;;32.60;31.20;;;;;;5052622;28;20536;-60
2022/08/23 12:16:38;;;;;;;7.63;1.87;;;32.70;31.00;;;;;;5051375;28;20576;-61
2022/08/23 12:19:24;;;;;;;2.13;1.20;;;32.90;30.90;;;;;;5052273;28;20453;-60
2022/08/23 12:21:54;;;;;;;5.00;1.77;;;33.10;30.60;;;;;;5052686;28;20431;-60
2022/08/23 12:24:32;;;;;;;3.33;1.77;;;32.90;30.30;;;;;;5050917;28;20558;-61
2022/08/23 12:27:10;;;;;;;3.97;1.50;;;32.50;30.60;;;;;;5032736;28;20459;-59
2022/08/23 12:29:58;;;;;;;1.90;1.60;;;32.10;31.20;;;;;;5041485;28;20537;-59
2022/08/23 12:32:36;;;;;;;3.57;2.33;;;31.60;31.60;;;;;;5053632;28;20473;-60
2022/08/23 12:35:28;;;;;;;4.37;3.20;;;31.20;32.20;;;;;;5056252;28;20524;-59
2022/08/23 12:38:02;;;;;;;3.70;3.07;;;30.80;32.70;;;;;;5056184;28;20428;-60
2022/08/23 12:40:35;;;;;;;2.73;2.20;;;30.50;32.90;;;;;;5056597;28;20525;-60
2022/08/23 12:43:05;;;;;;;3.23;1.57;;;30.40;33.10;;;;;;5056948;28;20508;-59
2022/08/23 12:45:38;;;;;;;1.70;1.33;;;30.30;33.10;;;;;;5056753;28;20467;-60
2022/08/23 12:48:08;;;;;;;6.20;1.63;;;30.10;33.10;;;;;;5056726;28;20460;-59
2022/08/23 12:50:38;;;;;;;2.73;1.70;;;30.10;33.10;;;;;;5056379;28;20470;-59
2022/08/23 12:53:10;;;;;;;1.90;1.50;;;30.10;33.10;;;;;;5056709;28;20474;-59
2022/08/23 12:55:41;;;;;;;3.10;1.70;;;30.00;33.10;;;;;;5056291;28;20559;-59
2022/08/23 12:58:09;;;;;;;3.93;1.70;;;30.00;33.10;;;;;;5056737;28;20869;-60
2022/08/23 13:00:41;;;;;;;1.70;1.47;;;30.00;33.10;;;;;;5057221;28;20554;-60
2022/08/23 13:03:15;;;;;;;1.97;1.60;;;30.00;33.00;;;;;;5056215;28;20424;-59
2022/08/23 13:05:45;;;;;;;4.20;1.40;;;29.90;33.10;;;;;;5056815;28;20550;-59
2022/08/23 13:08:17;;;;;;;2.10;1.60;;;29.90;33.40;;;;;;5056663;28;20821;-60
2022/08/23 13:10:48;;;;;;;2.30;1.60;;;30.00;33.30;;;;;;5056279;28;20427;-59
2022/08/23 13:13:19;;;;;;;2.10;1.70;;;30.00;33.20;;;;;;5056168;28;20458;-59
2022/08/23 13:15:50;;;;;;;3.33;1.40;;;30.10;33.00;;;;;;5055833;28;20569;-60
2022/08/23 13:18:29;;;;;;;3.33;1.77;;;30.20;32.90;;;;;;5055905;28;20458;-60
2022/08/23 13:21:30;;;;;;;4.10;1.73;;;30.20;33.50;;;;;;5056205;28;20434;-58
2022/08/23 13:23:59;;;;;;;4.90;1.50;;;30.30;32.80;;;;;;5044749;28;20450;-60
2022/08/23 13:26:35;;;;;;;2.17;1.60;;;30.40;32.80;;;;;;5056095;28;20546;-59
2022/08/23 13:29:07;;;;;;;2.60;1.70;;;30.40;32.80;;;;;;5055846;28;20427;-59